createdAt,value
2024-01-27T00:04:30.608Z,102847.31
2024-01-27T00:09:32.740Z,102851.75
2024-01-27T00:14:35.532Z,102849.97
2024-01-27T00:19:40.966Z,102848.22
2024-01-27T00:24:43.290Z,102850.94
2024-01-27T00:29:45.550Z,102858.03
2024-01-27T00:34:47.506Z,102857.97
2024-01-27T00:39:49.609Z,102875.72
2024-01-27T00:44:52.066Z,102881.88
2024-01-27T00:49:56.126Z,102889.84
2024-01-27T00:54:58.143Z,102873.00
2024-01-27T01:00:00.051Z,102886.31
2024-01-27T01:05:02.873Z,102888.13
2024-01-27T01:10:05.702Z,102885.47
2024-01-27T01:15:08.089Z,102891.66
2024-01-27T01:20:10.628Z,102904.06
2024-01-27T01:25:12.839Z,102893.44
2024-01-27T01:30:14.942Z,102905.91
2024-01-27T01:35:16.883Z,102901.47
2024-01-27T01:40:18.980Z,102895.25
2024-01-27T01:45:21.862Z,102897.03
2024-01-27T01:50:23.943Z,102899.72
2024-01-27T01:55:25.896Z,102888.19
2024-01-27T02:00:28.238Z,102900.56
2024-01-27T02:05:30.168Z,102893.50
2024-01-27T02:10:38.420Z,102893.50
2024-01-27T02:15:40.544Z,102900.56
2024-01-27T02:20:42.950Z,102890.78
2024-01-27T02:25:44.863Z,102888.19
2024-01-27T02:30:46.839Z,102897.06
2024-01-27T02:35:49.780Z,102904.19
2024-01-27T02:40:51.749Z,102903.28
2024-01-27T02:45:53.704Z,102904.19
2024-01-27T02:50:55.564Z,102903.25
2024-01-27T02:55:57.550Z,102906.84
2024-01-27T03:00:59.554Z,102902.41
2024-01-27T03:06:01.785Z,102890.06
2024-01-27T03:11:03.933Z,102898.84
2024-01-27T03:16:10.394Z,102893.59
2024-01-27T03:21:12.708Z,102897.09
2024-01-27T03:26:14.795Z,102899.75
2024-01-27T03:31:16.766Z,102898.88
2024-01-27T03:36:19.209Z,102907.78
2024-01-27T03:41:21.667Z,102910.44
2024-01-27T03:46:23.765Z,102905.06
2024-01-27T03:51:27.083Z,102916.56
2024-01-27T03:56:29.161Z,102914.81
2024-01-27T04:01:31.185Z,102899.81
2024-01-27T04:06:40.706Z,102908.66
2024-01-27T04:11:42.924Z,102911.31
2024-01-27T04:16:44.969Z,102913.94
2024-01-27T04:21:47.063Z,102917.53
2024-01-27T04:26:49.594Z,102917.53
2024-01-27T04:31:52.637Z,102914.00
2024-01-27T04:36:54.504Z,102917.53
2024-01-27T04:41:56.586Z,102921.06
2024-01-27T04:46:58.678Z,102919.31
2024-01-27T04:52:00.714Z,102927.28
2024-01-27T04:57:02.715Z,102923.72
2024-01-27T05:02:05.162Z,102927.28
2024-01-27T05:07:07.393Z,102929.03
2024-01-27T05:12:09.710Z,102931.72
2024-01-27T05:17:11.672Z,102922.00
2024-01-27T05:22:13.586Z,102929.09
2024-01-27T05:27:15.652Z,102922.00
2024-01-27T05:32:17.570Z,102925.50
2024-01-27T05:37:19.658Z,102917.63
2024-01-27T05:42:21.610Z,102919.38
2024-01-27T05:47:23.588Z,102920.22
2024-01-27T05:52:27.063Z,102921.13
2024-01-27T05:57:29.067Z,102912.28
2024-01-27T06:02:31.114Z,102907.00
2024-01-27T06:07:33.085Z,102914.88
2024-01-27T06:12:36.154Z,102915.88
2024-01-27T06:17:38.239Z,102928.22
2024-01-27T06:22:40.544Z,102935.28
2024-01-27T06:27:43.149Z,102937.97
2024-01-27T06:32:45.282Z,102936.25
2024-01-27T06:37:47.452Z,102936.25
2024-01-27T06:42:49.368Z,102947.72
2024-01-27T06:47:51.386Z,102943.31
2024-01-27T06:52:54.076Z,102932.69
2024-01-27T06:57:56.030Z,102933.59
2024-01-27T07:02:59.776Z,102922.97
2024-01-27T07:08:01.882Z,102938.03
2024-01-27T07:13:04.131Z,102943.34
2024-01-27T07:18:09.851Z,102948.59
2024-01-27T07:23:11.919Z,102945.94
2024-01-27T07:28:14.014Z,102971.63
2024-01-27T07:33:16.094Z,102968.97
2024-01-27T07:38:18.278Z,102959.28
2024-01-27T07:43:20.379Z,102972.53
2024-01-27T07:48:22.497Z,102977.00
2024-01-27T07:53:24.690Z,102980.53
2024-01-27T07:58:27.488Z,102969.03
2024-01-27T08:03:29.651Z,102968.97
2024-01-27T08:08:31.810Z,102965.47
2024-01-27T08:13:33.767Z,102976.94
2024-01-27T08:18:36.123Z,102977.00
2024-01-27T08:23:38.175Z,102988.50
2024-01-27T08:28:40.083Z,102981.41
2024-01-27T08:33:42.202Z,102977.91
2024-01-27T08:38:44.165Z,102983.19
2024-01-27T08:43:46.259Z,102975.22
2024-01-27T08:48:48.568Z,102980.50
2024-01-27T08:53:50.933Z,103000.84
2024-01-27T08:58:54.104Z,103003.47
2024-01-27T09:03:56.432Z,103000.88
2024-01-27T09:08:58.488Z,102993.72
2024-01-27T09:14:00.416Z,103007.00
2024-01-27T09:19:02.486Z,103010.56
2024-01-27T09:24:05.456Z,103015.88
2024-01-27T09:29:08.017Z,103021.19
2024-01-27T09:34:10.198Z,103019.41
2024-01-27T09:39:12.269Z,103015.91
2024-01-27T09:44:19.338Z,103006.09
2024-01-27T09:49:21.815Z,103019.41
2024-01-27T09:54:24.261Z,103014.16
2024-01-27T09:59:27.265Z,103021.19
2024-01-27T10:04:30.587Z,103011.47
2024-01-27T10:09:32.587Z,103017.63
2024-01-27T10:14:46.411Z,103023.84
2024-01-27T10:19:48.537Z,103017.66
2024-01-27T10:24:50.897Z,103018.53
2024-01-27T10:29:54.566Z,103015.84
2024-01-27T10:35:03.573Z,103013.22
2024-01-27T10:40:08.835Z,103007.06
2024-01-27T10:45:12.594Z,103019.41
2024-01-27T10:50:14.806Z,103018.53
2024-01-27T10:55:17.510Z,103021.19
2024-01-27T11:00:20.260Z,103029.16
2024-01-27T11:05:24.356Z,103035.34
2024-01-27T11:10:27.978Z,103031.88
2024-01-27T11:15:29.981Z,103023.09
2024-01-27T11:20:35.281Z,103021.31
2024-01-27T11:25:37.418Z,103023.97
2024-01-27T11:30:41.452Z,103028.16
2024-01-27T11:35:43.756Z,103027.31
2024-01-27T11:40:48.896Z,103026.34
2024-01-27T11:46:01.421Z,103018.47
2024-01-27T11:51:12.954Z,103013.19
2024-01-27T11:56:15.975Z,102998.16
2024-01-27T12:01:18.606Z,103002.63
2024-01-27T12:06:21.028Z,102991.13
2024-01-27T12:11:25.335Z,102995.56
2024-01-27T12:16:28.290Z,102989.41
2024-01-27T12:21:30.458Z,102977.00
2024-01-27T12:26:32.973Z,102976.19
2024-01-27T12:31:35.096Z,102971.75
2024-01-27T12:36:42.902Z,102960.25
2024-01-27T12:41:45.697Z,102963.03
2024-01-27T12:46:47.961Z,102962.09
2024-01-27T12:51:50.109Z,102953.28
2024-01-27T12:56:52.107Z,102951.38
2024-01-27T13:01:54.382Z,102941.56
2024-01-27T13:06:56.462Z,102936.25
2024-01-27T13:11:58.832Z,102942.41
2024-01-27T13:17:01.012Z,102931.00
2024-01-27T13:22:03.105Z,102931.94
2024-01-27T13:27:05.668Z,102928.47
2024-01-27T13:32:08.011Z,102925.81
2024-01-27T13:37:10.676Z,102922.28
2024-01-27T13:42:13.015Z,102909.03
2024-01-27T13:47:15.225Z,102911.72
2024-01-27T13:52:17.604Z,102928.59
2024-01-27T13:57:19.756Z,102907.41
2024-01-27T14:02:21.897Z,102906.50
2024-01-27T14:07:24.420Z,102895.03
2024-01-27T14:12:26.450Z,102906.50
2024-01-27T14:17:28.702Z,102903.03
2024-01-27T14:22:31.285Z,102895.94
2024-01-27T14:27:33.302Z,102890.69
2024-01-27T14:32:35.480Z,102890.69
2024-01-27T14:37:39.281Z,102904.00
2024-01-27T14:42:42.286Z,102908.44
2024-01-27T14:47:44.626Z,102904.91
2024-01-27T14:52:46.610Z,102898.75
2024-01-27T14:57:48.626Z,102908.50
2024-01-27T15:02:50.759Z,102895.28
2024-01-27T15:07:52.731Z,102897.78
2024-01-27T15:12:55.140Z,102887.97
2024-01-27T15:18:01.879Z,102887.78
2024-01-27T15:23:04.279Z,102867.41
2024-01-27T15:28:06.800Z,102870.97
2024-01-27T15:33:09.175Z,102875.38
2024-01-27T15:38:11.850Z,102875.28
2024-01-27T15:43:13.979Z,102872.59
2024-01-27T15:48:16.587Z,102873.72
2024-01-27T15:53:18.914Z,102870.16
2024-01-27T15:58:21.892Z,102867.47
2024-01-27T16:03:24.633Z,102863.84
2024-01-27T16:08:26.812Z,102859.41
2024-01-27T16:13:29.070Z,102854.84
2024-01-27T16:18:31.191Z,102852.22
2024-01-27T16:23:33.462Z,102855.00
2024-01-27T16:28:38.632Z,102845.31
2024-01-27T16:33:40.861Z,102845.16
2024-01-27T16:38:45.060Z,102849.56
2024-01-27T16:43:47.765Z,102839.78
2024-01-27T16:48:52.455Z,102844.13
2024-01-27T16:53:54.493Z,102835.25
2024-01-27T16:58:57.234Z,102838.81
2024-01-27T17:03:59.248Z,102834.31
2024-01-27T17:09:03.452Z,102840.53
2024-01-27T17:14:05.935Z,102839.69
2024-01-27T17:19:08.164Z,102836.16
2024-01-27T17:24:10.357Z,102843.25
2024-01-27T17:29:12.461Z,102837.03
2024-01-27T17:34:16.417Z,102823.75
2024-01-27T17:39:18.507Z,102822.91
2024-01-27T17:44:20.688Z,102826.47
2024-01-27T17:49:24.159Z,102837.97
2024-01-27T17:54:28.701Z,102835.38
2024-01-27T17:59:31.349Z,102838.19
2024-01-27T18:04:34.591Z,102842.69
2024-01-27T18:09:36.638Z,102846.34
2024-01-27T18:14:38.580Z,102851.56
2024-01-27T18:19:40.648Z,102852.44
2024-01-27T18:24:42.832Z,102851.56
2024-01-27T18:29:44.771Z,102864.84
2024-01-27T18:34:47.102Z,102861.31
2024-01-27T18:39:49.635Z,102866.63
2024-01-27T18:44:51.757Z,102866.56
2024-01-27T18:49:57.632Z,102862.19
2024-01-27T18:55:00.132Z,102862.19
2024-01-27T19:00:02.224Z,102850.53
2024-01-27T19:05:09.527Z,102862.00
2024-01-27T19:10:12.021Z,102860.34
2024-01-27T19:15:14.194Z,102862.19
2024-01-27T19:20:16.403Z,102851.50
2024-01-27T19:25:18.877Z,102848.91
2024-01-27T19:30:22.071Z,102832.06
2024-01-27T19:35:24.190Z,102821.97
2024-01-27T19:40:26.128Z,102820.97
2024-01-27T19:45:28.208Z,102826.31
2024-01-27T19:50:30.382Z,102817.50
2024-01-27T19:55:32.410Z,102832.50
2024-01-27T20:00:34.980Z,102827.19
2024-01-27T20:05:37.268Z,102819.22
2024-01-27T20:10:39.518Z,102813.00
2024-01-27T20:15:41.531Z,102800.66
2024-01-27T20:20:43.709Z,102797.06
2024-01-27T20:25:46.117Z,102789.16
2024-01-27T20:30:48.444Z,102789.16
2024-01-27T20:35:50.673Z,102781.25
2024-01-27T20:40:52.794Z,102778.56
2024-01-27T20:45:54.884Z,102776.81
2024-01-27T20:50:56.901Z,102774.19
2024-01-27T20:55:58.987Z,102773.31
2024-01-27T21:01:01.184Z,102770.63
2024-01-27T21:06:03.381Z,102772.38
2024-01-27T21:11:09.938Z,102771.50
2024-01-27T21:16:12.486Z,102758.25
2024-01-27T21:21:14.621Z,102768.91
2024-01-27T21:26:19.191Z,102759.09
2024-01-27T21:31:21.672Z,102752.06
2024-01-27T21:36:24.103Z,102756.44
2024-01-27T21:41:26.916Z,102753.81
2024-01-27T21:46:28.834Z,102750.19
2024-01-27T21:51:31.874Z,102746.69
2024-01-27T21:56:34.781Z,102753.84
2024-01-27T22:01:36.876Z,102751.13
2024-01-27T22:06:39.139Z,102736.13
2024-01-27T22:11:44.958Z,102733.88
2024-01-27T22:16:48.758Z,102716.22
2024-01-27T22:21:54.993Z,102708.28
2024-01-27T22:26:57.140Z,102713.56
2024-01-27T22:31:59.879Z,102713.50
2024-01-27T22:37:02.063Z,102709.78
2024-01-27T22:42:04.198Z,102699.91
2024-01-27T22:47:06.658Z,102712.19
2024-01-27T22:52:09.224Z,102701.63
2024-01-27T22:57:11.268Z,102681.31
2024-01-27T23:02:14.923Z,102690.06
2024-01-27T23:07:17.145Z,102697.22
2024-01-27T23:12:19.262Z,102701.66
2024-01-27T23:17:21.398Z,102684.81
2024-01-27T23:22:23.507Z,102683.91
2024-01-27T23:27:25.441Z,102686.56
2024-01-27T23:32:27.482Z,102678.66
2024-01-27T23:37:29.419Z,102676.94
2024-01-27T23:42:31.380Z,102667.19
2024-01-27T23:47:33.452Z,102661.88
2024-01-27T23:52:39.732Z,102646.84
2024-01-27T23:57:42.767Z,102634.56
